Time;durP1;ratioP1;P1;durP2;ratioP2;P2;SDS_P1;SDS_P2;PMS_P1;PMS_P2;Temp;Humidity;BMP_temperature;BMP_pressure;BME280_temperature;BME280_humidity;BME280_pressure;Samples;Min_cycle;Max_cycle;Signal;HPM_P1;HPM_P2
2021/06/08 00:01:15;;;;;;;24.43;21.83;;;16.70;99.90;;;;;;5048676;28;20520;-73
2021/06/08 00:03:42;;;;;;;24.50;21.43;;;16.70;99.90;;;;;;5048395;28;20554;-73
2021/06/08 00:06:09;;;;;;;26.80;24.10;;;16.70;99.90;;;;;;5048822;28;20456;-73
2021/06/08 00:08:36;;;;;;;23.37;21.00;;;16.70;99.90;;;;;;5048360;28;20475;-73
2021/06/08 00:11:03;;;;;;;22.20;19.80;;;16.70;99.90;;;;;;5048411;28;21143;-73
2021/06/08 00:13:29;;;;;;;24.80;20.27;;;16.70;99.90;;;;;;5048985;28;20845;-74
2021/06/08 00:15:56;;;;;;;23.67;20.43;;;16.70;99.90;;;;;;5048428;28;20487;-74
2021/06/08 00:18:22;;;;;;;28.93;23.20;;;16.70;99.90;;;;;;5048315;28;20495;-74
2021/06/08 00:20:48;;;;;;;25.60;22.87;;;16.60;99.90;;;;;;5047771;28;20467;-74
2021/06/08 00:23:16;;;;;;;23.30;21.00;;;16.60;99.90;;;;;;5048252;28;20463;-74
2021/06/08 00:25:42;;;;;;;26.20;22.27;;;16.70;99.90;;;;;;5048272;28;20459;-74
2021/06/08 00:28:09;;;;;;;24.33;21.60;;;16.70;99.90;;;;;;5048078;28;20494;-74
2021/06/08 00:30:36;;;;;;;24.10;20.67;;;16.70;99.90;;;;;;5048227;28;20851;-74
2021/06/08 00:33:02;;;;;;;21.60;19.27;;;16.70;99.90;;;;;;5047999;28;20472;-74
2021/06/08 00:35:30;;;;;;;23.43;20.93;;;16.70;99.90;;;;;;5048311;28;20491;-74
2021/06/08 00:37:57;;;;;;;23.57;21.07;;;16.70;99.90;;;;;;5048013;28;21042;-74
2021/06/08 00:40:26;;;;;;;22.53;20.23;;;16.70;99.90;;;;;;5048087;28;20467;-74
2021/06/08 00:42:53;;;;;;;25.20;21.70;;;16.70;99.90;;;;;;5047698;28;20463;-74
2021/06/08 00:45:19;;;;;;;23.60;20.80;;;16.70;99.90;;;;;;5047909;28;20463;-74
2021/06/08 00:47:45;;;;;;;23.03;20.67;;;16.70;99.90;;;;;;5047923;28;20493;-74
2021/06/08 00:50:12;;;;;;;25.20;22.50;;;16.70;99.90;;;;;;5048662;28;20463;-74
2021/06/08 00:52:38;;;;;;;23.30;20.80;;;16.70;99.90;;;;;;5048050;28;20463;-74
2021/06/08 00:55:05;;;;;;;22.90;20.57;;;16.70;99.90;;;;;;5048422;28;20459;-73
2021/06/08 00:57:33;;;;;;;19.50;15.13;;;16.70;99.90;;;;;;5047969;28;20491;-73
2021/06/08 00:59:59;;;;;;;17.27;14.80;;;16.60;99.90;;;;;;5048233;28;20773;-74
2021/06/08 01:02:25;;;;;;;17.50;15.50;;;16.60;99.90;;;;;;5050618;28;20848;-74
2021/06/08 01:04:51;;;;;;;16.17;13.00;;;16.50;99.90;;;;;;5049809;28;20467;-74
2021/06/08 01:07:18;;;;;;;13.30;12.07;;;16.50;99.90;;;;;;5049796;28;20484;-74
2021/06/08 01:09:44;;;;;;;10.80;9.67;;;16.50;99.90;;;;;;5053233;28;20455;-74
2021/06/08 01:12:10;;;;;;;11.93;10.70;;;16.50;99.90;;;;;;5050561;28;20461;-74
2021/06/08 01:14:38;;;;;;;18.23;16.30;;;16.40;99.90;;;;;;5050460;28;20821;-74
2021/06/08 01:17:04;;;;;;;16.30;14.70;;;16.40;99.90;;;;;;5050564;28;20483;-74
2021/06/08 01:19:30;;;;;;;11.67;10.47;;;16.40;99.90;;;;;;5050765;28;20806;-74
2021/06/08 01:21:58;;;;;;;14.33;12.83;;;16.40;99.90;;;;;;5050137;28;20456;-74
2021/06/08 01:24:24;;;;;;;19.77;17.67;;;16.40;99.90;;;;;;5050768;28;20816;-74
2021/06/08 01:26:51;;;;;;;19.60;17.60;;;16.40;99.90;;;;;;5050316;28;21271;-74
2021/06/08 01:29:18;;;;;;;19.00;17.10;;;16.40;99.90;;;;;;5050726;28;20467;-74
2021/06/08 01:31:48;;;;;;;19.53;17.63;;;16.50;99.90;;;;;;5050203;28;20456;-74
2021/06/08 01:34:15;;;;;;;16.73;15.03;;;16.50;99.90;;;;;;5050475;28;20462;-74
2021/06/08 01:36:42;;;;;;;19.67;16.33;;;16.50;99.90;;;;;;5050573;28;21164;-73
2021/06/08 01:39:10;;;;;;;17.03;15.10;;;16.60;99.90;;;;;;5050359;28;20975;-74
2021/06/08 01:41:37;;;;;;;16.93;15.23;;;16.60;99.90;;;;;;5050084;28;20877;-73
2021/06/08 01:44:05;;;;;;;17.23;15.43;;;16.60;99.90;;;;;;5050547;28;20463;-73
2021/06/08 01:46:31;;;;;;;16.67;14.90;;;16.60;99.90;;;;;;5050136;28;20482;-73
2021/06/08 01:48:57;;;;;;;17.10;15.30;;;16.60;99.90;;;;;;5050615;28;20467;-73
2021/06/08 01:51:31;;;;;;;17.97;15.27;;;16.60;99.90;;;;;;5050076;28;20828;-74
2021/06/08 01:54:08;;;;;;;16.33;14.77;;;16.60;99.90;;;;;;5050453;28;20516;-74
2021/06/08 01:56:38;;;;;;;15.23;13.63;;;16.60;99.90;;;;;;5050136;28;20482;-73
2021/06/08 01:59:20;;;;;;;17.20;15.50;;;16.70;99.90;;;;;;5050489;28;20460;-73
2021/06/08 02:01:56;;;;;;;17.57;15.63;;;16.60;99.90;;;;;;5049865;28;20506;-73
2021/06/08 02:04:27;;;;;;;16.90;15.30;;;16.60;99.90;;;;;;5050528;28;20459;-73
2021/06/08 02:07:07;;;;;;;16.53;14.93;;;16.60;99.90;;;;;;5050129;28;20553;-73
2021/06/08 02:09:40;;;;;;;18.83;15.23;;;16.60;99.90;;;;;;5050572;28;20467;-74
2021/06/08 02:12:15;;;;;;;17.90;15.93;;;16.60;99.90;;;;;;5051182;28;20455;-73
2021/06/08 02:14:47;;;;;;;15.57;13.90;;;16.60;99.90;;;;;;5050812;28;20487;-73
2021/06/08 02:17:17;;;;;;;15.80;14.27;;;16.60;99.90;;;;;;5077622;22;20465;-71
2021/06/08 02:19:47;;;;;;;16.30;14.33;;;16.60;99.90;;;;;;5085130;28;20548;-71
2021/06/08 02:22:13;;;;;;;17.03;15.30;;;16.60;99.90;;;;;;5093052;28;20461;-71
2021/06/08 02:24:44;;;;;;;15.07;13.60;;;16.60;99.90;;;;;;5094406;28;20540;-71
2021/06/08 02:27:13;;;;;;;16.30;14.63;;;16.60;99.90;;;;;;5093827;28;20952;-71
2021/06/08 02:29:41;;;;;;;16.30;14.70;;;16.60;99.90;;;;;;5094256;28;20472;-71
2021/06/08 02:32:09;;;;;;;15.43;13.83;;;16.70;99.90;;;;;;5093428;28;20453;-71
2021/06/08 02:34:37;;;;;;;19.40;17.30;;;16.60;99.90;;;;;;5094256;28;20500;-71
2021/06/08 02:37:05;;;;;;;18.07;16.20;;;16.60;99.90;;;;;;5093716;28;20488;-71
2021/06/08 02:39:31;;;;;;;19.13;16.93;;;16.60;99.90;;;;;;5093723;28;20461;-71
2021/06/08 02:41:58;;;;;;;22.47;19.13;;;16.60;99.90;;;;;;5093608;28;20457;-71
2021/06/08 02:44:27;;;;;;;21.23;18.93;;;16.60;99.90;;;;;;5093557;28;20473;-71
2021/06/08 02:46:56;;;;;;;21.83;19.17;;;16.50;99.90;;;;;;5093760;28;20817;-71
2021/06/08 02:49:22;;;;;;;23.63;21.13;;;16.50;99.90;;;;;;5093782;28;20832;-71
2021/06/08 02:51:49;;;;;;;24.83;21.17;;;16.50;99.90;;;;;;5093415;28;20457;-71
2021/06/08 02:54:17;;;;;;;23.87;21.37;;;16.50;99.90;;;;;;5093521;28;20453;-71
2021/06/08 02:56:44;;;;;;;22.63;20.20;;;16.50;99.90;;;;;;5093674;28;21000;-70
2021/06/08 02:59:11;;;;;;;27.93;24.07;;;16.50;99.90;;;;;;5093435;28;20531;-71
2021/06/08 03:01:43;;;;;;;28.93;23.50;;;16.50;99.90;;;;;;5092998;28;20992;-71
2021/06/08 03:04:12;;;;;;;25.23;22.53;;;16.50;99.90;;;;;;5093730;28;20882;-71
2021/06/08 03:06:42;;;;;;;26.97;24.10;;;16.50;99.90;;;;;;5093584;28;20832;-70
2021/06/08 03:09:13;;;;;;;28.70;23.63;;;16.50;99.90;;;;;;5092955;28;20477;-71
2021/06/08 03:11:41;;;;;;;26.53;21.63;;;16.50;99.90;;;;;;5093275;28;20465;-71
2021/06/08 03:14:28;;;;;;;29.50;23.50;;;16.50;99.90;;;;;;5093210;28;20507;-71
2021/06/08 03:16:57;;;;;;;28.33;22.90;;;16.50;99.90;;;;;;5090327;28;20484;-71
2021/06/08 03:19:29;;;;;;;28.77;23.70;;;16.50;99.90;;;;;;5093067;28;20456;-71
2021/06/08 03:21:59;;;;;;;29.07;25.20;;;16.50;99.90;;;;;;5092736;28;20465;-71
2021/06/08 03:24:29;;;;;;;26.70;23.80;;;16.50;99.90;;;;;;5093236;28;20515;-72
2021/06/08 03:26:58;;;;;;;30.37;25.83;;;16.50;99.90;;;;;;5091573;28;20445;-71
2021/06/08 03:29:25;;;;;;;29.30;24.20;;;16.50;99.90;;;;;;5091040;28;20460;-71
2021/06/08 03:31:52;;;;;;;30.20;26.30;;;16.50;99.90;;;;;;5091717;28;20453;-71
2021/06/08 03:34:20;;;;;;;31.87;26.80;;;16.50;99.90;;;;;;5092212;28;20454;-71
2021/06/08 03:36:49;;;;;;;33.13;27.37;;;16.50;99.90;;;;;;5064468;28;20998;-72
2021/06/08 03:39:17;;;;;;;33.33;27.60;;;16.40;99.90;;;;;;5066809;28;20482;-72
2021/06/08 03:41:45;;;;;;;33.30;26.77;;;16.40;99.90;;;;;;5077385;28;20462;-72
2021/06/08 03:44:13;;;;;;;32.40;27.10;;;16.40;99.90;;;;;;5075469;28;20457;-71
2021/06/08 03:46:40;;;;;;;33.13;28.37;;;16.50;99.90;;;;;;5077655;28;20828;-71
2021/06/08 03:49:06;;;;;;;33.67;27.00;;;16.40;99.90;;;;;;5076533;28;20482;-70
2021/06/08 03:51:35;;;;;;;34.88;31.08;;;16.40;99.90;;;;;;5062818;28;20980;-71
2021/06/08 03:54:01;;;;;;;34.57;28.67;;;16.50;99.90;;;;;;5065488;28;20200;-71
2021/06/08 03:56:29;;;;;;;36.20;29.87;;;16.50;99.90;;;;;;5059033;28;20486;-71
2021/06/08 03:58:56;;;;;;;35.10;27.70;;;16.50;99.90;;;;;;5058939;28;20884;-71
2021/06/08 04:01:24;;;;;;;34.30;28.50;;;16.50;99.90;;;;;;5060713;28;20454;-71
2021/06/08 04:03:51;;;;;;;34.57;26.53;;;16.50;99.90;;;;;;5062690;28;20463;-71
2021/06/08 04:06:19;;;;;;;30.47;26.07;;;16.50;99.90;;;;;;5061715;28;20462;-71
2021/06/08 04:08:47;;;;;;;31.93;27.10;;;16.50;99.90;;;;;;5060027;28;20474;-71
2021/06/08 04:11:16;;;;;;;30.33;25.03;;;16.60;99.90;;;;;;5051922;28;20463;-72
2021/06/08 04:13:43;;;;;;;32.53;25.87;;;16.60;99.90;;;;;;5058727;28;20458;-72
2021/06/08 04:16:09;;;;;;;32.37;24.30;;;16.60;99.90;;;;;;5059925;28;20475;-72
2021/06/08 04:18:37;;;;;;;29.47;26.10;;;16.60;99.90;;;;;;5061477;28;20487;-73
2021/06/08 04:21:04;;;;;;;25.90;23.00;;;16.60;99.90;;;;;;5058998;28;20466;-72
2021/06/08 04:23:30;;;;;;;28.70;25.00;;;16.60;99.90;;;;;;5051916;28;20489;-71
2021/06/08 04:25:59;;;;;;;27.33;23.53;;;16.60;99.90;;;;;;5051179;28;20460;-71
2021/06/08 04:28:27;;;;;;;28.47;25.40;;;16.60;99.90;;;;;;5051891;28;20479;-71
2021/06/08 04:30:56;;;;;;;28.23;25.23;;;16.60;99.90;;;;;;5050883;28;20466;-71
2021/06/08 04:33:23;;;;;;;28.23;22.80;;;16.60;99.90;;;;;;5051613;28;20467;-71
2021/06/08 04:35:50;;;;;;;27.53;22.93;;;16.60;99.90;;;;;;5051147;28;20462;-71
2021/06/08 04:38:17;;;;;;;24.53;21.23;;;16.60;99.90;;;;;;5051244;28;20494;-71
2021/06/08 04:40:44;;;;;;;27.27;23.70;;;16.60;99.90;;;;;;5050967;28;20517;-71
2021/06/08 04:43:13;;;;;;;26.77;23.40;;;16.50;99.90;;;;;;5051158;28;20460;-71
2021/06/08 04:45:39;;;;;;;25.83;22.83;;;16.60;99.90;;;;;;5051242;28;21032;-71
2021/06/08 04:48:07;;;;;;;26.40;23.20;;;16.60;99.90;;;;;;5069980;28;21004;-71
2021/06/08 04:50:33;;;;;;;24.43;21.07;;;16.60;99.90;;;;;;5070786;28;20978;-72
2021/06/08 04:53:02;;;;;;;25.83;22.40;;;16.60;99.90;;;;;;5070617;28;20832;-71
2021/06/08 04:55:29;;;;;;;26.40;22.00;;;16.60;99.90;;;;;;5070836;28;20875;-72
2021/06/08 04:57:56;;;;;;;26.20;22.00;;;16.60;99.90;;;;;;5070779;28;21309;-71
2021/06/08 05:00:30;;;;;;;27.30;22.90;;;16.60;99.90;;;;;;5073543;28;20459;-72
2021/06/08 05:02:58;;;;;;;27.67;23.70;;;16.60;99.90;;;;;;5090624;28;20472;-71
2021/06/08 05:05:27;;;;;;;27.07;23.93;;;16.60;99.90;;;;;;5091188;28;20457;-71
2021/06/08 05:08:01;;;;;;;27.63;22.53;;;16.60;99.90;;;;;;5090554;28;20477;-71
2021/06/08 05:10:29;;;;;;;27.20;24.30;;;16.70;99.90;;;;;;5091216;28;20472;-71
2021/06/08 05:12:57;;;;;;;25.90;22.80;;;16.70;99.90;;;;;;5090429;28;20477;-71
2021/06/08 05:15:26;;;;;;;27.10;23.13;;;16.70;99.90;;;;;;5091007;28;20991;-71
2021/06/08 05:17:55;;;;;;;26.03;23.23;;;16.70;99.90;;;;;;5090531;28;20493;-71
2021/06/08 05:20:22;;;;;;;29.40;24.10;;;16.70;99.90;;;;;;5090598;28;20457;-71
2021/06/08 05:22:50;;;;;;;28.40;25.03;;;16.70;99.90;;;;;;5090386;28;20522;-71
2021/06/08 05:25:17;;;;;;;25.80;23.10;;;16.70;99.90;;;;;;5090575;28;20461;-71
2021/06/08 05:27:45;;;;;;;26.67;23.80;;;16.70;99.90;;;;;;5090574;28;20478;-71
2021/06/08 05:30:12;;;;;;;28.30;22.97;;;16.70;99.90;;;;;;5090931;28;20465;-71
2021/06/08 05:32:43;;;;;;;28.73;24.40;;;16.70;99.90;;;;;;5090021;28;20462;-71
2021/06/08 05:35:11;;;;;;;26.13;23.03;;;16.70;99.90;;;;;;5090830;28;20465;-71
2021/06/08 05:37:42;;;;;;;28.77;24.07;;;16.70;99.90;;;;;;5090262;28;20500;-71
2021/06/08 05:40:10;;;;;;;27.47;23.07;;;16.70;99.90;;;;;;5090790;28;20920;-71
2021/06/08 05:42:37;;;;;;;30.33;23.57;;;16.70;99.90;;;;;;5090056;28;20492;-71
2021/06/08 05:45:05;;;;;;;29.10;22.50;;;16.80;99.90;;;;;;5090595;28;20828;-71
2021/06/08 05:47:31;;;;;;;26.83;22.80;;;16.80;99.90;;;;;;5090539;28;20481;-71
2021/06/08 05:49:59;;;;;;;26.13;23.43;;;16.80;99.90;;;;;;5090180;28;20552;-71
2021/06/08 05:52:27;;;;;;;27.27;23.23;;;16.90;99.90;;;;;;5094530;28;20837;-71
2021/06/08 05:54:54;;;;;;;26.00;23.20;;;16.90;99.90;;;;;;5096888;28;20465;-71
2021/06/08 05:57:21;;;;;;;26.27;23.53;;;16.90;99.90;;;;;;5097080;28;21020;-72
2021/06/08 05:59:48;;;;;;;27.33;24.30;;;17.00;99.90;;;;;;5078153;28;20474;-71
2021/06/08 06:02:16;;;;;;;28.37;23.30;;;16.90;99.90;;;;;;5076494;28;20540;-71
2021/06/08 06:04:44;;;;;;;26.03;23.33;;;16.90;99.90;;;;;;5076732;28;21358;-71
2021/06/08 06:07:13;;;;;;;28.10;24.53;;;17.00;99.90;;;;;;5076478;28;20484;-71
2021/06/08 06:09:39;;;;;;;26.90;22.10;;;17.00;99.90;;;;;;5076768;28;20462;-71
2021/06/08 06:12:07;;;;;;;26.80;23.00;;;17.00;99.90;;;;;;5076228;28;20465;-71
2021/06/08 06:14:35;;;;;;;26.03;22.33;;;17.00;99.90;;;;;;5076664;28;20492;-71
2021/06/08 06:17:03;;;;;;;27.73;23.80;;;17.00;99.90;;;;;;5075557;28;20493;-71
2021/06/08 06:19:30;;;;;;;27.50;24.07;;;17.00;99.90;;;;;;5056434;28;20826;-71
2021/06/08 06:21:57;;;;;;;28.60;23.10;;;16.90;99.90;;;;;;5056210;28;20462;-71
2021/06/08 06:24:27;;;;;;;30.23;27.00;;;16.80;99.90;;;;;;5056428;28;20494;-71
2021/06/08 06:26:54;;;;;;;28.37;24.13;;;16.80;99.90;;;;;;5056297;28;20463;-71
2021/06/08 06:29:21;;;;;;;28.20;25.10;;;16.80;99.90;;;;;;5060278;28;20462;-71
2021/06/08 06:31:48;;;;;;;26.80;23.33;;;16.80;99.90;;;;;;5065647;28;20461;-71
2021/06/08 06:34:17;;;;;;;30.73;24.60;;;16.80;99.90;;;;;;5067093;28;21066;-71
2021/06/08 06:36:46;;;;;;;27.50;24.07;;;16.80;99.90;;;;;;5064807;28;20558;-71
2021/06/08 06:39:17;;;;;;;28.53;25.60;;;16.80;99.90;;;;;;5067449;28;20550;-71
2021/06/08 06:41:49;;;;;;;27.30;24.23;;;16.80;99.90;;;;;;5065325;28;20455;-71
2021/06/08 06:44:17;;;;;;;29.17;25.03;;;16.80;99.90;;;;;;5061758;28;20451;-71
2021/06/08 06:46:45;;;;;;;29.40;23.50;;;16.80;99.90;;;;;;5056158;28;20455;-71
2021/06/08 06:49:12;;;;;;;29.57;23.80;;;16.80;99.90;;;;;;5056554;28;20483;-71
2021/06/08 06:51:40;;;;;;;31.00;25.37;;;16.80;99.90;;;;;;5056099;28;20463;-71
2021/06/08 06:54:09;;;;;;;30.63;25.80;;;16.90;99.90;;;;;;5056120;28;20927;-71
2021/06/08 06:56:35;;;;;;;30.67;26.10;;;16.90;99.90;;;;;;5056133;28;20994;-71
2021/06/08 06:59:04;;;;;;;28.47;24.37;;;16.90;99.90;;;;;;5056328;28;20491;-71
2021/06/08 07:01:31;;;;;;;29.90;25.80;;;16.90;99.90;;;;;;5068505;28;20458;-71
2021/06/08 07:03:59;;;;;;;28.00;23.33;;;16.90;99.90;;;;;;5072961;28;20527;-71
2021/06/08 07:06:27;;;;;;;28.47;25.37;;;16.90;99.90;;;;;;5073007;28;20966;-71
2021/06/08 07:08:54;;;;;;;31.00;26.20;;;16.90;99.90;;;;;;5072953;28;20482;-71
2021/06/08 07:11:22;;;;;;;28.37;25.03;;;16.90;99.90;;;;;;5072651;28;20459;-71
2021/06/08 07:13:48;;;;;;;28.73;24.83;;;16.80;99.90;;;;;;5072934;28;20463;-71
2021/06/08 07:16:16;;;;;;;26.87;23.13;;;16.80;99.90;;;;;;5072929;28;20458;-71
2021/06/08 07:18:46;;;;;;;25.47;22.80;;;16.80;99.90;;;;;;5072685;28;20486;-71
2021/06/08 07:21:15;;;;;;;29.60;25.07;;;16.90;99.90;;;;;;5072837;28;20462;-71
2021/06/08 07:23:42;;;;;;;31.27;25.30;;;16.90;99.90;;;;;;5072143;28;20459;-71
2021/06/08 07:26:10;;;;;;;29.57;23.43;;;16.90;99.90;;;;;;5072859;28;20500;-71
2021/06/08 07:28:36;;;;;;;27.43;24.30;;;17.00;99.90;;;;;;5072508;28;20851;-71
2021/06/08 07:31:04;;;;;;;29.10;24.43;;;17.00;99.90;;;;;;5072516;28;20528;-71
2021/06/08 07:33:40;;;;;;;30.13;23.60;;;17.00;99.90;;;;;;5072448;28;21016;-71
2021/06/08 07:36:11;;;;;;;28.43;24.67;;;17.00;99.90;;;;;;5072876;28;20561;-72
2021/06/08 07:38:47;;;;;;;27.03;24.13;;;17.00;99.90;;;;;;5072305;28;20521;-72
2021/06/08 07:41:17;;;;;;;26.33;23.53;;;17.00;99.90;;;;;;5072285;28;20454;-71
2021/06/08 07:43:50;;;;;;;30.60;26.17;;;17.00;99.90;;;;;;5072220;28;20459;-71
2021/06/08 07:46:18;;;;;;;32.27;26.67;;;17.10;99.90;;;;;;5072265;28;20458;-72
2021/06/08 07:48:50;;;;;;;27.67;23.57;;;17.10;99.90;;;;;;5072166;28;20892;-72
2021/06/08 07:51:17;;;;;;;29.10;24.57;;;17.10;99.90;;;;;;5071851;28;20515;-72
2021/06/08 07:53:44;;;;;;;30.80;26.20;;;17.10;99.90;;;;;;5072041;28;20477;-72
2021/06/08 07:56:11;;;;;;;32.67;27.07;;;17.10;99.90;;;;;;5072214;28;20458;-71
2021/06/08 07:58:38;;;;;;;29.33;24.00;;;17.10;99.90;;;;;;5071607;28;20486;-71
2021/06/08 08:01:04;;;;;;;27.97;24.50;;;17.10;99.90;;;;;;5071865;28;20467;-72
2021/06/08 08:03:32;;;;;;;26.83;23.37;;;17.10;99.90;;;;;;5071888;28;20466;-71
2021/06/08 08:06:02;;;;;;;28.37;25.33;;;17.20;99.90;;;;;;5071725;28;20459;-71
2021/06/08 08:08:30;;;;;;;27.57;24.60;;;17.20;99.90;;;;;;5071638;28;20486;-72
2021/06/08 08:10:57;;;;;;;28.13;23.57;;;17.30;99.90;;;;;;5071234;28;20868;-72
2021/06/08 08:13:27;;;;;;;29.27;25.23;;;17.30;99.90;;;;;;5072168;28;20462;-71
2021/06/08 08:15:54;;;;;;;28.23;25.23;;;17.40;99.90;;;;;;5070999;28;20463;-71
2021/06/08 08:18:21;;;;;;;30.43;25.20;;;17.40;99.90;;;;;;5071628;28;20486;-72
2021/06/08 08:20:52;;;;;;;27.87;23.60;;;17.50;99.90;;;;;;5070892;28;20469;-71
2021/06/08 08:23:21;;;;;;;28.80;24.60;;;17.50;99.90;;;;;;5071717;28;20480;-71
2021/06/08 08:25:48;;;;;;;26.90;23.50;;;17.50;99.90;;;;;;5071229;28;20458;-71
2021/06/08 08:28:14;;;;;;;27.37;23.20;;;17.50;99.90;;;;;;5070260;28;20846;-71
2021/06/08 08:30:41;;;;;;;26.80;22.47;;;17.60;99.90;;;;;;5063596;28;20883;-72
2021/06/08 08:33:07;;;;;;;27.07;24.10;;;17.60;99.90;;;;;;5065093;28;20452;-71
2021/06/08 08:35:36;;;;;;;25.53;22.80;;;17.70;99.90;;;;;;5059173;28;20458;-71
2021/06/08 08:38:02;;;;;;;26.47;23.67;;;17.70;99.90;;;;;;5063155;28;20483;-72
2021/06/08 08:40:30;;;;;;;26.00;23.33;;;17.70;99.90;;;;;;5059534;28;20446;-72
2021/06/08 08:43:00;;;;;;;26.23;23.43;;;17.60;99.90;;;;;;5061240;28;20462;-72
2021/06/08 08:45:26;;;;;;;26.67;23.70;;;17.60;99.90;;;;;;5069390;28;20462;-72
2021/06/08 08:47:53;;;;;;;27.90;23.03;;;17.60;99.90;;;;;;5070037;28;20839;-72
2021/06/08 08:50:19;;;;;;;26.83;23.70;;;17.60;99.90;;;;;;5070812;28;20541;-72
2021/06/08 08:52:56;;;;;;;24.33;21.73;;;17.60;99.90;;;;;;5070859;28;20459;-72
2021/06/08 08:55:24;;;;;;;27.00;24.20;;;17.60;99.90;;;;;;5071020;28;20450;-72
2021/06/08 08:57:52;;;;;;;27.57;24.27;;;17.60;99.90;;;;;;5070651;28;21013;-72
2021/06/08 09:00:21;;;;;;;25.90;23.10;;;17.60;99.90;;;;;;5070928;28;20470;-72
2021/06/08 09:02:48;;;;;;;30.27;25.77;;;17.60;99.90;;;;;;5070036;28;20841;-72
2021/06/08 09:05:15;;;;;;;29.93;24.50;;;17.70;99.90;;;;;;5070903;28;20470;-71
2021/06/08 09:07:41;;;;;;;29.93;25.10;;;17.70;99.90;;;;;;5070185;28;20490;-70
2021/06/08 09:10:09;;;;;;;26.77;24.00;;;17.80;99.90;;;;;;5070654;28;20469;-71
2021/06/08 09:12:36;;;;;;;25.57;22.83;;;17.90;99.90;;;;;;5070458;28;20465;-71
2021/06/08 09:15:05;;;;;;;26.00;23.20;;;17.80;99.90;;;;;;5070358;28;20454;-70
2021/06/08 09:17:31;;;;;;;26.03;23.07;;;17.90;99.90;;;;;;5070537;28;20483;-70
2021/06/08 09:19:58;;;;;;;29.20;26.10;;;17.90;99.90;;;;;;5070343;28;20508;-69
2021/06/08 09:22:48;;;;;;;27.27;24.17;;;18.00;99.90;;;;;;5070442;28;20454;-70
2021/06/08 09:25:14;;;;;;;29.00;26.00;;;18.00;99.90;;;;;;5092241;22;20980;-73
2021/06/08 09:27:43;;;;;;;28.57;24.97;;;18.00;99.90;;;;;;5081342;28;20457;-73
2021/06/08 09:30:15;;;;;;;26.67;23.87;;;17.90;99.90;;;;;;5090478;28;20798;-73
2021/06/08 09:32:41;;;;;;;28.00;24.93;;;18.00;99.90;;;;;;5090335;28;20462;-73
2021/06/08 09:35:08;;;;;;;28.63;25.57;;;18.00;99.90;;;;;;5090568;28;20473;-73
2021/06/08 09:37:37;;;;;;;29.07;25.80;;;18.10;99.90;;;;;;5090651;28;20489;-73
2021/06/08 09:40:16;;;;;;;29.93;25.40;;;18.10;99.90;;;;;;5090762;28;20450;-73
2021/06/08 09:42:43;;;;;;;30.40;24.37;;;18.20;99.90;;;;;;5089456;28;20460;-73
2021/06/08 09:45:11;;;;;;;28.10;25.07;;;18.20;99.90;;;;;;5090262;28;20473;-73
2021/06/08 09:47:40;;;;;;;29.00;25.90;;;18.30;99.90;;;;;;5090722;28;20481;-73
2021/06/08 09:50:29;;;;;;;27.83;24.70;;;18.40;99.90;;;;;;5090077;28;20489;-73
2021/06/08 09:53:14;;;;;;;27.50;23.23;;;18.30;99.90;;;;;;5090234;28;20942;-73
2021/06/08 09:56:06;;;;;;;28.30;25.20;;;18.30;99.90;;;;;;5090327;28;20476;-73
2021/06/08 09:58:34;;;;;;;28.77;25.67;;;18.40;99.90;;;;;;5090534;28;20493;-73
2021/06/08 10:01:19;;;;;;;27.60;24.80;;;18.50;99.90;;;;;;5090147;28;20520;-73
2021/06/08 10:03:48;;;;;;;30.93;25.03;;;18.80;99.90;;;;;;5090463;28;20592;-73
2021/06/08 10:06:16;;;;;;;28.67;25.50;;;18.90;99.90;;;;;;5072385;28;20577;-72
2021/06/08 10:08:57;;;;;;;27.33;24.53;;;19.10;99.90;;;;;;5069930;28;20493;-72
2021/06/08 10:11:25;;;;;;;27.17;23.93;;;19.10;99.90;;;;;;5069714;28;20473;-72
2021/06/08 10:13:58;;;;;;;25.20;22.60;;;19.10;99.90;;;;;;5069759;28;20592;-72
2021/06/08 10:16:27;;;;;;;29.10;24.67;;;19.10;99.90;;;;;;5070228;28;20486;-72
2021/06/08 10:18:56;;;;;;;27.07;24.20;;;19.10;99.90;;;;;;5070245;28;21016;-73
2021/06/08 10:21:46;;;;;;;27.27;24.43;;;19.10;99.90;;;;;;5069718;28;20494;-72
2021/06/08 10:24:13;;;;;;;25.90;22.63;;;19.20;99.90;;;;;;5069771;28;20466;-72
2021/06/08 10:26:41;;;;;;;27.37;24.63;;;19.20;99.90;;;;;;5069852;28;20553;-72
2021/06/08 10:29:10;;;;;;;26.37;23.70;;;19.30;99.90;;;;;;5072408;28;20454;-72
2021/06/08 10:31:39;;;;;;;25.77;23.07;;;19.30;99.90;;;;;;5069633;28;20470;-71
2021/06/08 10:34:07;;;;;;;29.20;26.20;;;19.30;99.90;;;;;;5057020;28;20451;-72
2021/06/08 10:36:35;;;;;;;29.93;25.70;;;19.30;99.90;;;;;;5049877;28;20466;-72
2021/06/08 10:39:04;;;;;;;25.07;22.57;;;19.30;99.90;;;;;;5052465;28;20467;-73
2021/06/08 10:41:33;;;;;;;28.47;25.63;;;19.30;99.90;;;;;;5051996;28;20466;-72
2021/06/08 10:44:01;;;;;;;26.53;23.83;;;19.40;99.90;;;;;;5053313;28;20466;-72
2021/06/08 10:46:32;;;;;;;27.23;24.40;;;19.40;99.90;;;;;;5053657;28;20463;-73
2021/06/08 10:49:00;;;;;;;24.87;22.30;;;19.40;99.90;;;;;;5053923;28;20548;-72
2021/06/08 10:51:29;;;;;;;26.00;22.77;;;19.40;99.90;;;;;;5052881;28;20516;-73
2021/06/08 10:53:57;;;;;;;26.37;23.87;;;19.50;99.90;;;;;;5053483;28;20463;-73
2021/06/08 10:56:26;;;;;;;26.00;23.30;;;19.50;99.90;;;;;;5052819;28;20881;-72
2021/06/08 10:58:54;;;;;;;26.13;23.50;;;19.60;99.90;;;;;;5053365;28;20510;-72
2021/06/08 11:01:43;;;;;;;23.50;21.30;;;19.70;99.90;;;;;;5063605;28;20464;-72
2021/06/08 11:04:11;;;;;;;22.03;19.83;;;19.80;99.90;;;;;;5072704;28;20458;-73
2021/06/08 11:06:51;;;;;;;24.60;22.13;;;19.90;99.90;;;;;;5073356;28;20549;-73
2021/06/08 11:09:30;;;;;;;23.93;21.53;;;20.10;99.90;;;;;;5072832;28;20985;-72
2021/06/08 11:11:58;;;;;;;21.53;19.53;;;20.20;99.90;;;;;;5072838;28;20576;-72
2021/06/08 11:14:59;;;;;;;24.20;21.70;;;20.20;99.90;;;;;;5072649;28;21359;-72
2021/06/08 11:17:37;;;;;;;23.27;20.90;;;20.20;99.90;;;;;;5072936;28;20478;-72
2021/06/08 11:20:07;;;;;;;23.20;21.00;;;20.10;99.90;;;;;;5072893;28;20454;-72
2021/06/08 11:22:55;;;;;;;22.27;20.17;;;20.10;99.90;;;;;;5072650;28;20458;-72
2021/06/08 11:25:43;;;;;;;22.97;20.73;;;20.00;99.90;;;;;;5072801;28;20572;-72
2021/06/08 11:28:13;;;;;;;23.17;21.00;;;20.00;99.90;;;;;;5072698;28;20459;-72
2021/06/08 11:30:42;;;;;;;23.17;20.93;;;20.00;99.90;;;;;;5073107;28;20458;-72
2021/06/08 11:33:26;;;;;;;24.90;22.60;;;19.90;99.90;;;;;;5072297;28;20921;-72
2021/06/08 11:35:52;;;;;;;21.70;19.67;;;19.90;99.90;;;;;;5072821;28;20486;-72
2021/06/08 11:38:33;;;;;;;21.87;19.83;;;19.90;99.90;;;;;;5072124;28;20478;-72
2021/06/08 11:41:10;;;;;;;22.70;20.40;;;19.90;99.90;;;;;;5072239;28;20454;-73
2021/06/08 11:43:54;;;;;;;25.87;23.20;;;20.00;99.90;;;;;;5072585;28;20515;-72
2021/06/08 11:46:28;;;;;;;24.70;22.30;;;19.90;99.90;;;;;;5072415;28;21197;-72
2021/06/08 11:49:10;;;;;;;24.73;22.03;;;19.80;99.90;;;;;;5072138;28;20465;-72
2021/06/08 11:51:42;;;;;;;22.80;20.73;;;19.90;99.90;;;;;;5071845;28;21034;-72
2021/06/08 11:54:13;;;;;;;22.50;20.20;;;20.00;99.90;;;;;;5072321;28;20461;-72
2021/06/08 11:56:44;;;;;;;23.47;21.30;;;20.20;99.90;;;;;;5072255;28;20591;-72
2021/06/08 11:59:11;;;;;;;25.30;22.60;;;20.20;99.90;;;;;;5072118;28;20486;-72
2021/06/08 12:01:39;;;;;;;22.43;20.33;;;20.30;99.90;;;;;;5071932;28;20466;-72
2021/06/08 12:04:05;;;;;;;22.80;20.70;;;20.40;99.90;;;;;;5072149;28;20509;-72
2021/06/08 12:06:57;;;;;;;23.07;20.97;;;20.40;99.90;;;;;;5072226;28;20501;-72
2021/06/08 12:09:27;;;;;;;26.23;23.73;;;20.50;99.90;;;;;;5055548;28;20459;-72
2021/06/08 12:11:55;;;;;;;23.13;20.87;;;20.70;99.90;;;;;;5051656;28;20467;-72
2021/06/08 12:14:25;;;;;;;22.60;20.50;;;20.80;99.90;;;;;;5051627;28;20467;-72
2021/06/08 12:16:52;;;;;;;23.43;21.27;;;21.00;99.90;;;;;;5052053;28;20501;-72
2021/06/08 12:19:19;;;;;;;24.07;21.77;;;21.20;99.90;;;;;;5051522;28;20455;-72
2021/06/08 12:21:45;;;;;;;22.50;20.43;;;21.30;99.90;;;;;;5051705;28;20459;-72
2021/06/08 12:24:19;;;;;;;23.93;20.90;;;21.40;99.90;;;;;;5051455;28;20463;-72
2021/06/08 12:26:55;;;;;;;22.90;20.77;;;21.50;99.90;;;;;;5052822;28;20466;-72
2021/06/08 12:29:22;;;;;;;24.07;21.90;;;21.60;99.90;;;;;;5071553;28;20466;-72
2021/06/08 12:31:54;;;;;;;24.77;22.27;;;21.50;99.90;;;;;;5070856;28;20547;-72
2021/06/08 12:34:23;;;;;;;24.00;21.80;;;21.40;99.90;;;;;;5071251;28;20461;-72
2021/06/08 12:36:50;;;;;;;21.80;19.80;;;21.30;99.90;;;;;;5071204;28;20454;-73
2021/06/08 12:39:18;;;;;;;20.50;18.50;;;21.30;99.90;;;;;;5071397;28;20464;-73